createdAt,value
2018-12-22T02:47:52.169Z,6.00
2018-12-22T02:50:19.697Z,5.90
2018-12-22T02:52:48.240Z,5.80
2018-12-22T02:55:15.930Z,5.90
2018-12-22T02:57:43.468Z,6.00
2018-12-22T03:00:11.412Z,6.10
2018-12-22T03:02:38.943Z,6.00
2018-12-22T03:05:06.603Z,5.90
2018-12-22T03:19:52.718Z,5.90
2018-12-22T03:22:20.375Z,5.60
2018-12-22T03:32:10.859Z,6.40
2018-12-22T03:34:38.834Z,6.40
2018-12-22T03:56:48.457Z,6.50
2018-12-22T04:01:46.002Z,6.30
2018-12-22T04:04:14.096Z,6.20
2018-12-22T04:58:27.373Z,5.30
2018-12-22T05:00:55.000Z,5.40
2018-12-22T05:03:22.521Z,5.40
2018-12-22T05:30:28.518Z,5.30
2018-12-22T05:32:56.610Z,5.60
2018-12-22T05:35:24.341Z,5.60
2018-12-22T05:37:52.027Z,5.70
2018-12-22T05:40:20.042Z,5.90
2018-12-22T05:42:47.899Z,5.80
2018-12-22T05:45:15.430Z,6.10
2018-12-22T05:47:43.003Z,6.10
2018-12-22T05:50:10.662Z,5.90
2018-12-22T09:04:53.543Z,5.60
2018-12-22T09:09:49.107Z,5.90
2018-12-22T09:12:16.644Z,6.00
2018-12-22T09:14:44.475Z,6.10
2018-12-22T09:17:12.046Z,6.10
2018-12-22T09:19:39.578Z,6.10
2018-12-22T09:22:07.111Z,6.10
2018-12-22T09:29:30.456Z,6.10
2018-12-22T09:31:58.046Z,6.10
2018-12-22T09:34:25.598Z,5.90
2018-12-22T09:36:53.133Z,5.80
2018-12-22T09:39:21.159Z,5.80
2018-12-22T09:41:49.141Z,5.80
2018-12-22T09:44:17.030Z,5.80
2018-12-22T09:54:08.311Z,5.80
2018-12-22T09:56:36.539Z,5.90
2018-12-22T09:59:06.356Z,5.90
2018-12-22T10:01:34.558Z,6.00
2018-12-22T10:04:02.451Z,6.10
2018-12-22T10:11:26.122Z,6.20
2018-12-22T10:13:53.656Z,6.20
2018-12-22T10:16:21.237Z,6.10
2018-12-22T10:18:48.888Z,6.20
2018-12-22T10:40:59.605Z,5.60
2018-12-22T10:53:19.457Z,6.10
2018-12-22T10:55:47.162Z,6.20
2018-12-22T10:58:14.942Z,6.10
2018-12-22T11:03:10.667Z,6.00
2018-12-22T11:05:38.637Z,6.00
2018-12-22T11:08:07.091Z,6.00
2018-12-22T11:10:34.676Z,6.10
2018-12-22T11:13:02.261Z,6.30
2018-12-22T11:15:30.215Z,6.40
2018-12-22T11:17:57.774Z,6.40
2018-12-22T11:20:25.523Z,6.50
2018-12-22T11:22:53.403Z,6.80
2018-12-22T11:25:21.073Z,6.60
2018-12-22T11:27:49.014Z,6.60
2018-12-22T11:30:20.621Z,6.80
2018-12-22T11:32:48.652Z,6.80
2018-12-22T11:37:44.392Z,6.70
2018-12-22T11:40:12.115Z,6.60
2018-12-22T11:42:47.447Z,6.50
2018-12-22T11:45:09.694Z,6.40
2018-12-22T11:47:41.475Z,6.40
2018-12-22T11:50:13.865Z,6.30
2018-12-22T11:52:41.674Z,6.40
2018-12-22T11:55:09.215Z,6.60
2018-12-22T11:57:37.140Z,6.50
2018-12-22T12:00:07.481Z,6.60
2018-12-22T12:02:35.314Z,6.70
2018-12-22T12:05:05.162Z,6.60
2018-12-22T12:07:32.980Z,6.60
2018-12-22T12:10:00.765Z,6.50
2018-12-22T12:12:28.346Z,6.70
2018-12-22T12:14:55.942Z,6.80
2018-12-22T12:17:30.159Z,6.70
2018-12-22T12:19:57.706Z,6.60
2018-12-22T12:22:25.467Z,6.50
2018-12-22T12:24:53.032Z,6.60
2018-12-22T12:27:20.763Z,6.50
2018-12-22T12:29:48.663Z,6.50
2018-12-22T12:32:16.396Z,6.40
2018-12-22T12:34:44.185Z,6.30
2018-12-22T12:37:12.201Z,6.30
2018-12-22T12:39:39.970Z,6.30
2018-12-22T12:42:07.797Z,6.30
2018-12-22T12:44:35.726Z,6.20
2018-12-22T12:47:03.567Z,6.20
2018-12-22T12:49:31.358Z,6.20
2018-12-22T12:51:59.032Z,6.20
2018-12-22T12:54:27.173Z,6.10
2018-12-22T12:56:55.027Z,6.20
2018-12-22T13:33:58.006Z,6.70
2018-12-22T13:48:46.807Z,6.70
2018-12-22T13:51:15.346Z,6.70
2018-12-22T13:56:11.050Z,6.90
2018-12-22T14:01:07.410Z,6.90
2018-12-22T14:08:30.972Z,6.90
2018-12-22T14:10:59.179Z,6.90
2018-12-22T14:13:26.859Z,6.80
2018-12-22T14:18:29.748Z,6.80
2018-12-22T14:20:57.912Z,6.80
2018-12-22T14:23:31.388Z,6.80
2018-12-22T14:28:26.832Z,6.60
2018-12-22T14:35:50.636Z,6.40
2018-12-22T14:50:37.337Z,6.50
2018-12-22T14:53:05.174Z,6.50
2018-12-22T14:58:01.732Z,6.60
2018-12-22T15:00:29.362Z,6.60
2018-12-22T15:02:58.483Z,6.40
2018-12-22T15:05:26.600Z,6.40
2018-12-22T15:07:54.340Z,6.40
2018-12-22T15:10:22.118Z,6.50
2018-12-22T15:12:49.739Z,6.70
2018-12-22T15:15:17.538Z,6.70
2018-12-22T15:17:45.139Z,6.70
2018-12-22T15:20:19.177Z,6.70
2018-12-22T15:22:46.985Z,6.80
2018-12-22T15:25:14.909Z,6.70
2018-12-22T15:27:42.440Z,6.70
2018-12-22T15:30:14.287Z,6.70
2018-12-22T15:32:44.431Z,7.00
2018-12-22T15:35:11.604Z,7.00
2018-12-22T15:37:39.399Z,7.10
2018-12-22T15:40:11.876Z,7.10
2018-12-22T15:42:39.573Z,7.00
2018-12-22T15:45:17.122Z,7.10
2018-12-22T15:47:45.850Z,7.10
2018-12-22T15:50:24.736Z,7.20
2018-12-22T15:52:53.322Z,7.30
2018-12-22T15:55:21.020Z,7.10
2018-12-22T15:57:48.575Z,7.10
2018-12-22T16:00:16.579Z,7.10
2018-12-22T16:02:52.816Z,7.10
2018-12-22T16:05:14.373Z,7.20
2018-12-22T16:07:42.333Z,7.30
2018-12-22T16:10:13.875Z,7.10
2018-12-22T16:12:41.952Z,7.20
2018-12-22T16:15:15.953Z,7.20
2018-12-22T16:17:43.525Z,7.30
2018-12-22T16:20:12.712Z,7.10
2018-12-22T16:22:43.945Z,7.20
2018-12-22T16:25:13.103Z,7.10
2018-12-22T16:27:41.365Z,7.00
2018-12-22T16:30:17.703Z,7.10
2018-12-22T16:32:45.656Z,6.90
2018-12-22T16:35:13.507Z,7.00
2018-12-22T16:37:41.109Z,6.90
2018-12-22T16:40:12.223Z,7.10
2018-12-22T16:42:40.865Z,7.00
2018-12-22T16:45:14.938Z,6.90
2018-12-22T16:47:43.364Z,6.80
2018-12-22T16:50:15.278Z,6.70
2018-12-22T16:52:43.036Z,6.70
2018-12-22T16:55:15.404Z,6.60
2018-12-22T16:57:50.028Z,6.40
2018-12-22T17:00:24.520Z,6.20
2018-12-22T17:02:52.892Z,6.10
2018-12-22T17:05:21.315Z,5.90
2018-12-22T17:07:49.298Z,5.80
2018-12-22T17:10:17.007Z,5.60
2018-12-22T17:12:44.555Z,5.50
2018-12-22T17:15:21.773Z,5.50
2018-12-22T17:17:45.030Z,5.40
2018-12-22T17:20:15.159Z,5.40
2018-12-22T17:22:52.496Z,5.30
2018-12-22T17:25:21.171Z,5.30
2018-12-22T17:27:48.771Z,5.30
2018-12-22T17:30:16.605Z,5.20
2018-12-22T17:32:44.677Z,5.10
2018-12-22T17:35:13.736Z,5.10
2018-12-22T17:37:41.278Z,5.20
2018-12-22T17:40:10.182Z,5.30
2018-12-22T17:42:37.792Z,5.10
2018-12-22T17:45:09.386Z,5.10
2018-12-22T17:47:37.079Z,5.10
2018-12-22T17:50:07.512Z,5.00
2018-12-22T17:52:35.298Z,5.00
2018-12-22T17:55:02.958Z,4.90
2018-12-22T17:57:30.891Z,5.20
2018-12-22T17:59:58.585Z,5.20
2018-12-22T18:02:26.134Z,5.10
2018-12-22T18:04:53.987Z,5.10
2018-12-22T18:07:21.579Z,5.20
2018-12-22T18:09:50.193Z,5.00
2018-12-22T18:12:17.909Z,5.00
2018-12-22T18:14:46.131Z,4.90
2018-12-22T18:17:13.822Z,4.90
2018-12-22T18:22:15.198Z,5.00
2018-12-22T18:24:43.286Z,4.90
2018-12-22T18:27:10.884Z,4.90
2018-12-22T18:29:39.013Z,5.00
2018-12-22T18:32:06.700Z,5.10
2018-12-22T18:34:34.486Z,5.10
2018-12-22T18:37:02.434Z,5.00
2018-12-22T18:39:30.006Z,5.00
2018-12-22T18:41:57.781Z,5.00
2018-12-22T18:44:25.606Z,5.10
2018-12-22T18:46:53.396Z,4.90
2018-12-22T18:49:21.119Z,5.00
2018-12-22T18:51:49.085Z,4.90
2018-12-22T18:54:16.938Z,5.00
2018-12-22T18:56:44.698Z,5.10
2018-12-22T18:59:13.447Z,5.10
2018-12-22T19:01:41.358Z,5.00
2018-12-22T19:04:09.541Z,4.90
2018-12-22T19:06:37.116Z,4.80
2018-12-22T19:09:08.411Z,4.80
2018-12-22T19:11:36.719Z,4.60
2018-12-22T19:14:04.690Z,4.50
2018-12-22T19:16:32.416Z,4.50
2018-12-22T19:19:00.500Z,4.40
2018-12-22T19:21:28.396Z,4.40
2018-12-22T19:23:56.177Z,4.30
2018-12-22T19:26:24.541Z,4.30
2018-12-22T19:28:52.546Z,4.30
2018-12-22T19:31:20.383Z,4.30
2018-12-22T19:33:53.438Z,4.30
2018-12-22T19:36:19.324Z,4.30
2018-12-22T19:38:47.389Z,4.30
2018-12-22T19:41:19.210Z,4.20
2018-12-22T19:43:47.445Z,4.20
2018-12-22T19:46:15.137Z,4.10
2018-12-22T19:48:42.693Z,4.20
2018-12-22T19:51:10.660Z,4.20
2018-12-22T19:53:38.377Z,4.10
2018-12-22T19:56:06.392Z,4.00
2018-12-22T19:58:34.579Z,4.00
2018-12-22T20:01:02.570Z,4.00
2018-12-22T20:03:30.833Z,4.00
2018-12-22T20:05:59.085Z,3.80
2018-12-22T20:08:26.633Z,3.90
2018-12-22T20:10:54.566Z,3.80
2018-12-22T20:13:23.068Z,3.90
2018-12-22T20:15:50.619Z,3.70
2018-12-22T20:18:18.192Z,3.80
2018-12-22T20:20:45.929Z,3.90
2018-12-22T20:23:13.523Z,3.80
2018-12-22T20:25:42.638Z,3.80
2018-12-22T20:28:11.369Z,3.70
2018-12-22T20:30:38.917Z,3.70
2018-12-22T20:33:06.974Z,3.70
2018-12-22T20:35:35.841Z,3.70
2018-12-22T20:38:03.954Z,3.60
2018-12-22T20:40:32.272Z,3.70
2018-12-22T20:43:00.460Z,3.70
2018-12-22T20:45:29.202Z,3.70
2018-12-22T20:47:58.683Z,3.70
2018-12-22T20:50:27.026Z,3.90
2018-12-22T20:52:55.083Z,3.80
2018-12-22T20:55:23.230Z,3.80
2018-12-22T20:57:51.995Z,3.80
2018-12-22T21:00:19.766Z,3.80
2018-12-22T21:02:47.980Z,3.80
2018-12-22T21:05:16.666Z,3.80
2018-12-22T21:07:44.593Z,3.80
2018-12-22T21:10:12.126Z,3.90
2018-12-22T21:12:40.055Z,3.90
2018-12-22T21:15:07.928Z,3.90
2018-12-22T21:17:35.474Z,3.90
2018-12-22T21:20:03.053Z,4.00
2018-12-22T21:22:30.592Z,3.90
2018-12-22T21:24:58.385Z,3.80
2018-12-22T21:27:26.138Z,3.90
2018-12-22T21:29:54.016Z,3.80
2018-12-22T21:32:21.783Z,3.80
2018-12-22T21:34:49.370Z,3.80
2018-12-22T21:37:17.027Z,3.80
2018-12-22T21:39:44.567Z,3.70
2018-12-22T21:42:12.147Z,3.80
2018-12-22T21:44:41.387Z,3.80
2018-12-22T21:47:10.131Z,3.70
2018-12-22T21:49:37.703Z,3.70
2018-12-22T21:52:06.225Z,3.80
2018-12-22T21:54:33.924Z,3.80
2018-12-22T21:57:01.971Z,3.80
2018-12-22T21:59:29.851Z,3.80
2018-12-22T22:01:57.427Z,3.90
2018-12-22T22:04:25.743Z,3.90
2018-12-22T22:06:53.827Z,3.80
2018-12-22T22:09:21.381Z,3.70
2018-12-22T22:11:49.147Z,3.70
2018-12-22T22:14:16.703Z,3.70
2018-12-22T22:16:44.364Z,3.70
2018-12-22T22:19:11.959Z,3.70
2018-12-22T22:21:39.568Z,3.70
2018-12-22T22:24:07.229Z,3.80
2018-12-22T22:26:35.112Z,3.70
2018-12-22T22:29:02.673Z,3.70
2018-12-22T22:31:30.213Z,3.80
2018-12-22T22:33:58.098Z,3.80
2018-12-22T22:43:49.297Z,3.70
2018-12-22T22:46:17.080Z,3.70
2018-12-22T22:48:45.082Z,3.80
2018-12-22T22:51:13.154Z,3.90
2018-12-22T22:53:41.008Z,3.80
2018-12-22T22:56:08.724Z,3.80
2018-12-22T22:58:36.301Z,3.70
2018-12-22T23:01:04.208Z,3.70
2018-12-22T23:03:31.770Z,3.80
2018-12-22T23:05:59.303Z,3.80
2018-12-22T23:08:27.081Z,3.70
2018-12-22T23:10:54.654Z,3.80
2018-12-22T23:13:22.304Z,3.80
2018-12-22T23:15:50.492Z,3.80
2018-12-22T23:18:18.079Z,3.80
2018-12-22T23:20:46.107Z,3.70
2018-12-22T23:23:13.972Z,3.70
2018-12-22T23:25:42.065Z,3.90
2018-12-22T23:28:09.724Z,3.80
2018-12-22T23:30:37.591Z,3.80
2018-12-22T23:33:05.436Z,3.80
2018-12-22T23:35:33.297Z,3.70
2018-12-22T23:38:01.146Z,3.70
2018-12-22T23:40:28.720Z,3.70
2018-12-22T23:42:56.553Z,3.80
2018-12-22T23:45:24.091Z,3.70
2018-12-22T23:47:51.872Z,3.70
2018-12-22T23:50:19.674Z,3.70
2018-12-22T23:52:47.509Z,3.70
2018-12-22T23:55:15.403Z,3.70
2018-12-22T23:57:43.251Z,3.70
